createdAt,value
2017-06-19T00:00:14.759Z,1016.83
2017-06-19T00:00:40.867Z,1016.81
2017-06-19T00:01:07.016Z,1016.82
2017-06-19T00:01:33.131Z,1016.83
2017-06-19T00:01:59.242Z,1016.83
2017-06-19T00:02:25.341Z,1016.84
2017-06-19T00:02:51.447Z,1016.84
2017-06-19T00:03:17.589Z,1016.85
2017-06-19T00:03:43.804Z,1016.84
2017-06-19T00:04:09.965Z,1016.83
2017-06-19T00:04:36.060Z,1016.82
2017-06-19T00:05:02.153Z,1016.85
2017-06-19T00:05:28.263Z,1016.84
2017-06-19T00:05:54.362Z,1016.85
2017-06-19T00:06:20.454Z,1016.81
2017-06-19T00:06:46.561Z,1016.8
2017-06-19T00:07:12.717Z,1016.82
2017-06-19T00:07:38.808Z,1016.8
2017-06-19T00:08:04.943Z,1016.82
2017-06-19T00:08:31.007Z,1016.83
2017-06-19T00:08:57.116Z,1016.84
2017-06-19T00:09:23.240Z,1016.78
2017-06-19T00:09:49.333Z,1016.8
2017-06-19T00:10:15.459Z,1016.79
2017-06-19T00:10:41.588Z,1016.79
2017-06-19T00:11:07.681Z,1016.81
2017-06-19T00:11:33.837Z,1016.8
2017-06-19T00:11:59.973Z,1016.8
2017-06-19T00:12:26.104Z,1016.78
2017-06-19T00:12:52.234Z,1016.79
2017-06-19T00:13:18.339Z,1016.79
2017-06-19T00:13:44.484Z,1016.78
2017-06-19T00:14:10.582Z,1016.81
2017-06-19T00:14:36.690Z,1016.78
2017-06-19T00:15:02.787Z,1016.77
2017-06-19T00:15:28.878Z,1016.79
2017-06-19T00:15:55.020Z,1016.81
2017-06-19T00:16:21.119Z,1016.78
2017-06-19T00:16:47.241Z,1016.81
2017-06-19T00:17:13.343Z,1016.8
2017-06-19T00:17:39.444Z,1016.75
2017-06-19T00:18:05.561Z,1016.84
2017-06-19T00:18:31.667Z,1016.82
2017-06-19T00:18:57.774Z,1016.78
2017-06-19T00:19:23.869Z,1016.81
2017-06-19T00:19:49.968Z,1016.78
2017-06-19T00:20:16.061Z,1016.81
2017-06-19T00:20:42.169Z,1016.83
2017-06-19T00:21:08.272Z,1016.79
2017-06-19T00:21:34.363Z,1016.82
2017-06-19T00:22:00.465Z,1016.79
2017-06-19T00:22:26.603Z,1016.81
2017-06-19T00:22:52.744Z,1016.85
2017-06-19T00:23:18.846Z,1016.81
2017-06-19T00:23:44.953Z,1016.8
2017-06-19T00:24:11.047Z,1016.82
2017-06-19T00:24:37.144Z,1016.85
2017-06-19T00:25:03.296Z,1016.84
2017-06-19T00:25:29.426Z,1016.84
2017-06-19T00:25:55.533Z,1016.86
2017-06-19T00:26:21.624Z,1016.84
2017-06-19T00:26:47.728Z,1016.85
2017-06-19T00:27:13.862Z,1016.83
2017-06-19T00:27:39.979Z,1016.85
2017-06-19T00:28:06.087Z,1016.85
2017-06-19T00:28:32.187Z,1016.85
2017-06-19T00:28:58.292Z,1016.84
2017-06-19T00:29:24.399Z,1016.85
2017-06-19T00:29:50.512Z,1016.83
2017-06-19T00:30:16.639Z,1016.83
2017-06-19T00:30:42.769Z,1016.8
2017-06-19T00:31:08.862Z,1016.8
2017-06-19T00:31:34.958Z,1016.82
2017-06-19T00:32:01.067Z,1016.81
2017-06-19T00:32:27.163Z,1016.8
2017-06-19T00:32:53.258Z,1016.78
2017-06-19T00:33:19.368Z,1016.75
2017-06-19T00:33:45.465Z,1016.77
2017-06-19T00:34:11.557Z,1016.79
2017-06-19T00:34:37.663Z,1016.76
2017-06-19T00:35:03.765Z,1016.79
2017-06-19T00:35:29.906Z,1016.78
2017-06-19T00:35:56.012Z,1016.77
2017-06-19T00:36:22.131Z,1016.76
2017-06-19T00:36:48.244Z,1016.75
2017-06-19T00:37:14.341Z,1016.76
2017-06-19T00:37:40.432Z,1016.74
2017-06-19T00:38:06.569Z,1016.75
2017-06-19T00:38:32.723Z,1016.71
2017-06-19T00:38:58.816Z,1016.74
2017-06-19T00:39:24.923Z,1016.74
2017-06-19T00:39:51.085Z,1016.74
2017-06-19T00:40:17.174Z,1016.75
2017-06-19T00:40:43.278Z,1016.74
2017-06-19T00:41:09.385Z,1016.72
2017-06-19T00:41:35.503Z,1016.75
2017-06-19T00:42:01.636Z,1016.72
2017-06-19T00:42:27.728Z,1016.73
2017-06-19T00:42:53.834Z,1016.72
2017-06-19T00:43:19.941Z,1016.7
2017-06-19T00:43:46.056Z,1016.73
2017-06-19T00:44:12.156Z,1016.72
2017-06-19T00:44:38.290Z,1016.72
2017-06-19T00:45:04.428Z,1016.72
2017-06-19T00:45:30.551Z,1016.7
2017-06-19T00:45:56.660Z,1016.68
2017-06-19T00:46:22.755Z,1016.66
2017-06-19T00:46:48.873Z,1016.7
2017-06-19T00:47:14.978Z,1016.64
2017-06-19T00:47:41.080Z,1016.66
2017-06-19T00:48:07.246Z,1016.67
2017-06-19T00:48:33.367Z,1016.65
2017-06-19T00:48:59.464Z,1016.65
2017-06-19T00:49:25.573Z,1016.65
2017-06-19T00:49:51.698Z,1016.65
2017-06-19T00:50:17.862Z,1016.65
2017-06-19T00:50:43.973Z,1016.68
2017-06-19T00:51:10.098Z,1016.67
2017-06-19T00:51:36.192Z,1016.64
2017-06-19T00:52:02.325Z,1016.64
2017-06-19T00:52:28.452Z,1016.63
2017-06-19T00:52:54.559Z,1016.6
2017-06-19T00:53:20.656Z,1016.65
2017-06-19T00:53:46.748Z,1016.64
2017-06-19T00:54:12.857Z,1016.66
2017-06-19T00:54:38.952Z,1016.66
2017-06-19T00:55:05.043Z,1016.64
2017-06-19T00:55:31.177Z,1016.64
2017-06-19T00:55:57.277Z,1016.64
2017-06-19T00:56:23.396Z,1016.65
2017-06-19T00:56:49.499Z,1016.62
2017-06-19T00:57:15.609Z,1016.61
2017-06-19T00:57:41.747Z,1016.64
2017-06-19T00:58:07.850Z,1016.64
2017-06-19T00:58:33.958Z,1016.64
2017-06-19T00:59:00.050Z,1016.63
2017-06-19T00:59:26.148Z,1016.64
2017-06-19T00:59:52.257Z,1016.62
2017-06-19T01:00:18.352Z,1016.62
2017-06-19T01:00:44.471Z,1016.59
2017-06-19T01:01:10.581Z,1016.62
2017-06-19T01:01:36.678Z,1016.61
2017-06-19T01:02:02.768Z,1016.62
2017-06-19T01:02:28.877Z,1016.63
2017-06-19T01:02:54.977Z,1016.61
2017-06-19T01:03:21.122Z,1016.59
2017-06-19T01:03:47.250Z,1016.6
2017-06-19T01:04:13.342Z,1016.61
2017-06-19T01:04:39.481Z,1016.65
2017-06-19T01:05:05.579Z,1016.63
2017-06-19T01:05:31.697Z,1016.62
2017-06-19T01:05:57.856Z,1016.62
2017-06-19T01:06:23.961Z,1016.6
2017-06-19T01:06:50.053Z,1016.66
2017-06-19T01:07:16.157Z,1016.59
2017-06-19T01:07:42.265Z,1016.6
2017-06-19T01:08:08.357Z,1016.62
2017-06-19T01:08:34.460Z,1016.59
2017-06-19T01:09:00.565Z,1016.61
2017-06-19T01:09:26.658Z,1016.64
2017-06-19T01:09:52.762Z,1016.6
2017-06-19T01:10:18.854Z,1016.57
2017-06-19T01:10:44.960Z,1016.54
2017-06-19T01:11:11.068Z,1016.59
2017-06-19T01:11:37.156Z,1016.55
2017-06-19T01:12:03.286Z,1016.55
2017-06-19T01:12:29.393Z,1016.56
2017-06-19T01:12:55.485Z,1016.54
2017-06-19T01:13:21.583Z,1016.56
2017-06-19T01:13:47.720Z,1016.53
2017-06-19T01:14:13.846Z,1016.51
2017-06-19T01:14:39.939Z,1016.55
2017-06-19T01:15:06.071Z,1016.54
2017-06-19T01:15:32.172Z,1016.53
2017-06-19T01:15:58.280Z,1016.51
2017-06-19T01:16:24.372Z,1016.51
2017-06-19T01:16:50.472Z,1016.5
2017-06-19T01:17:16.582Z,1016.53
2017-06-19T01:17:42.678Z,1016.5
2017-06-19T01:18:08.797Z,1016.53
2017-06-19T01:18:34.907Z,1016.51
2017-06-19T01:19:01.007Z,1016.53
2017-06-19T01:19:27.099Z,1016.51
2017-06-19T01:19:53.205Z,1016.52
2017-06-19T01:20:19.336Z,1016.51
2017-06-19T01:20:45.439Z,1016.56
2017-06-19T01:21:11.534Z,1016.52
2017-06-19T01:21:37.627Z,1016.53
2017-06-19T01:22:03.737Z,1016.53
2017-06-19T01:22:29.865Z,1016.54
2017-06-19T01:22:55.958Z,1016.51
2017-06-19T01:23:22.066Z,1016.51
2017-06-19T01:23:48.171Z,1016.51
2017-06-19T01:24:14.309Z,1016.52
2017-06-19T01:24:40.439Z,1016.51
2017-06-19T01:25:06.547Z,1016.52
2017-06-19T01:25:32.660Z,1016.51
2017-06-19T01:25:58.736Z,1016.51
2017-06-19T01:26:24.871Z,1016.53
2017-06-19T01:26:50.996Z,1016.5
2017-06-19T01:27:17.099Z,1016.51
2017-06-19T01:27:43.188Z,1016.49
2017-06-19T01:28:09.342Z,1016.5
2017-06-19T01:28:35.449Z,1016.52
2017-06-19T01:29:01.539Z,1016.52
2017-06-19T01:29:27.640Z,1016.52
2017-06-19T01:29:53.745Z,1016.5
2017-06-19T01:30:19.837Z,1016.52
2017-06-19T01:30:45.936Z,1016.52
2017-06-19T01:31:12.043Z,1016.51
2017-06-19T01:31:38.140Z,1016.5
2017-06-19T01:32:04.600Z,1016.5
2017-06-19T01:32:30.691Z,1016.5
2017-06-19T01:32:56.793Z,1016.53
2017-06-19T01:33:22.927Z,1016.52
2017-06-19T01:33:49.019Z,1016.54
2017-06-19T01:34:15.119Z,1016.53
2017-06-19T01:34:41.227Z,1016.51
2017-06-19T01:35:07.346Z,1016.51
2017-06-19T01:35:33.439Z,1016.51
2017-06-19T01:35:59.575Z,1016.53
2017-06-19T01:36:25.672Z,1016.5
2017-06-19T01:36:51.765Z,1016.5
2017-06-19T01:37:17.899Z,1016.53
2017-06-19T01:37:43.994Z,1016.49
2017-06-19T01:38:10.130Z,1016.52
2017-06-19T01:38:36.225Z,1016.53
2017-06-19T01:39:02.317Z,1016.51
2017-06-19T01:39:28.426Z,1016.51
2017-06-19T01:39:54.580Z,1016.47
2017-06-19T01:40:20.665Z,1016.49
2017-06-19T01:40:46.773Z,1016.46
2017-06-19T01:41:12.873Z,1016.52
2017-06-19T01:41:38.989Z,1016.48
2017-06-19T01:42:05.096Z,1016.48
2017-06-19T01:42:31.204Z,1016.51
2017-06-19T01:42:57.293Z,1016.49
2017-06-19T01:43:23.393Z,1016.48
2017-06-19T01:43:49.499Z,1016.5
2017-06-19T01:44:15.593Z,1016.5
2017-06-19T01:44:41.691Z,1016.48
2017-06-19T01:45:07.828Z,1016.47
2017-06-19T01:45:33.921Z,1016.47
2017-06-19T01:46:00.038Z,1016.5
2017-06-19T01:46:26.174Z,1016.48
2017-06-19T01:46:52.273Z,1016.49
2017-06-19T01:47:18.388Z,1016.43
2017-06-19T01:47:44.524Z,1016.46
2017-06-19T01:48:10.626Z,1016.47
2017-06-19T01:48:36.751Z,1016.41
2017-06-19T01:49:02.869Z,1016.45
2017-06-19T01:49:28.960Z,1016.47
2017-06-19T01:49:55.098Z,1016.46
2017-06-19T01:50:21.196Z,1016.47
2017-06-19T01:50:47.289Z,1016.44
2017-06-19T01:51:13.395Z,1016.43
2017-06-19T01:51:39.495Z,1016.45
2017-06-19T01:52:05.587Z,1016.45
2017-06-19T01:52:31.692Z,1016.44
2017-06-19T01:52:57.832Z,1016.41
2017-06-19T01:53:23.889Z,1016.42
2017-06-19T01:53:49.991Z,1016.41
2017-06-19T01:54:16.085Z,1016.39
2017-06-19T01:54:42.195Z,1016.41
2017-06-19T01:55:08.297Z,1016.42
2017-06-19T01:55:34.388Z,1016.41
2017-06-19T01:56:00.492Z,1016.38
2017-06-19T01:56:26.601Z,1016.4
2017-06-19T01:56:52.691Z,1016.4
2017-06-19T01:57:18.794Z,1016.35
2017-06-19T01:57:44.905Z,1016.38
2017-06-19T01:58:11.019Z,1016.37
2017-06-19T01:58:37.145Z,1016.37
2017-06-19T01:59:03.253Z,1016.37
2017-06-19T01:59:30.557Z,1016.35
2017-06-19T01:59:58.654Z,1016.36
2017-06-19T02:00:24.755Z,1016.34
2017-06-19T02:00:52.833Z,1016.31
2017-06-19T02:01:20.341Z,1016.37
2017-06-19T02:01:47.613Z,1016.34
2017-06-19T02:02:15.126Z,1016.33
2017-06-19T02:02:42.172Z,1016.35
2017-06-19T02:03:10.055Z,1016.32
2017-06-19T02:03:38.103Z,1016.34
2017-06-19T02:04:05.546Z,1016.31
2017-06-19T02:04:31.643Z,1016.32
2017-06-19T02:04:57.758Z,1016.31
2017-06-19T02:05:23.865Z,1016.28
2017-06-19T02:05:49.963Z,1016.26
2017-06-19T02:06:16.067Z,1016.32
2017-06-19T02:06:42.162Z,1016.32
2017-06-19T02:07:08.277Z,1016.3
2017-06-19T02:07:34.389Z,1016.31
2017-06-19T02:08:00.488Z,1016.29
2017-06-19T02:08:26.579Z,1016.29
2017-06-19T02:08:52.686Z,1016.27
2017-06-19T02:09:18.790Z,1016.29
2017-06-19T02:09:44.881Z,1016.29
2017-06-19T02:10:10.986Z,1016.27
2017-06-19T02:10:37.092Z,1016.3
2017-06-19T02:11:03.188Z,1016.27
2017-06-19T02:11:29.314Z,1016.27
2017-06-19T02:11:55.409Z,1016.26
2017-06-19T02:12:21.514Z,1016.28
2017-06-19T02:12:47.616Z,1016.3
2017-06-19T02:13:13.709Z,1016.29
2017-06-19T02:13:39.815Z,1016.26
2017-06-19T02:14:05.922Z,1016.29
2017-06-19T02:14:32.011Z,1016.28
2017-06-19T02:14:58.111Z,1016.3
2017-06-19T02:15:24.221Z,1016.25
2017-06-19T02:15:50.315Z,1016.3
2017-06-19T02:16:16.441Z,1016.3
2017-06-19T02:16:42.538Z,1016.27
2017-06-19T02:17:08.692Z,1016.25
2017-06-19T02:17:34.803Z,1016.24
2017-06-19T02:18:00.892Z,1016.24
2017-06-19T02:18:27.022Z,1016.28
2017-06-19T02:18:53.158Z,1016.27
2017-06-19T02:19:19.277Z,1016.27
2017-06-19T02:19:45.376Z,1016.25
2017-06-19T02:20:11.512Z,1016.25
2017-06-19T02:20:37.632Z,1016.27
2017-06-19T02:21:03.723Z,1016.3
2017-06-19T02:21:29.833Z,1016.28
2017-06-19T02:21:55.961Z,1016.27
2017-06-19T02:22:22.065Z,1016.31
2017-06-19T02:22:48.184Z,1016.27
2017-06-19T02:23:14.309Z,1016.31
2017-06-19T02:23:40.442Z,1016.29
2017-06-19T02:24:06.590Z,1016.31
2017-06-19T02:24:32.680Z,1016.29
2017-06-19T02:24:58.792Z,1016.29
2017-06-19T02:25:24.899Z,1016.27
2017-06-19T02:25:51.008Z,1016.29
2017-06-19T02:26:17.127Z,1016.27
2017-06-19T02:26:43.225Z,1016.28
2017-06-19T02:27:09.334Z,1016.29
2017-06-19T02:27:35.428Z,1016.28
2017-06-19T02:28:01.521Z,1016.31
2017-06-19T02:28:27.632Z,1016.3
2017-06-19T02:28:53.730Z,1016.3
2017-06-19T02:29:19.819Z,1016.28
2017-06-19T02:29:45.926Z,1016.26
2017-06-19T02:30:12.055Z,1016.28
2017-06-19T02:30:38.172Z,1016.28
2017-06-19T02:31:04.275Z,1016.29
2017-06-19T02:31:30.381Z,1016.27
2017-06-19T02:31:56.498Z,1016.28
2017-06-19T02:32:22.649Z,1016.28
2017-06-19T02:32:48.758Z,1016.28
2017-06-19T02:33:14.875Z,1016.27
2017-06-19T02:33:40.981Z,1016.27
2017-06-19T02:34:07.075Z,1016.29
2017-06-19T02:34:33.180Z,1016.28
2017-06-19T02:34:59.289Z,1016.28
2017-06-19T02:35:25.376Z,1016.3
2017-06-19T02:35:51.476Z,1016.28
2017-06-19T02:36:17.612Z,1016.29
2017-06-19T02:36:43.706Z,1016.31
2017-06-19T02:37:09.802Z,1016.31
2017-06-19T02:37:35.937Z,1016.3
2017-06-19T02:38:02.031Z,1016.29
2017-06-19T02:38:28.127Z,1016.31
2017-06-19T02:38:54.254Z,1016.3
2017-06-19T02:39:20.381Z,1016.29
2017-06-19T02:39:46.517Z,1016.33
2017-06-19T02:40:12.633Z,1016.37
2017-06-19T02:40:38.758Z,1016.32
2017-06-19T02:41:04.893Z,1016.35
2017-06-19T02:41:30.990Z,1016.33
2017-06-19T02:41:57.107Z,1016.31
2017-06-19T02:42:23.218Z,1016.34
2017-06-19T02:42:49.345Z,1016.32
2017-06-19T02:43:15.437Z,1016.36
2017-06-19T02:43:41.544Z,1016.35
2017-06-19T02:44:07.646Z,1016.36
2017-06-19T02:44:33.773Z,1016.36
2017-06-19T02:44:59.866Z,1016.33
2017-06-19T02:45:25.956Z,1016.35
2017-06-19T02:45:52.066Z,1016.32
2017-06-19T02:46:18.193Z,1016.39
2017-06-19T02:46:44.285Z,1016.35
2017-06-19T02:47:10.418Z,1016.32
2017-06-19T02:47:36.550Z,1016.29
2017-06-19T02:48:02.674Z,1016.25
2017-06-19T02:48:28.745Z,1016.33
2017-06-19T02:48:54.854Z,1016.33
2017-06-19T02:49:20.943Z,1016.33
2017-06-19T02:49:47.099Z,1016.33
2017-06-19T02:50:13.209Z,1016.27
2017-06-19T02:50:39.300Z,1016.31
2017-06-19T02:51:05.425Z,1016.24
2017-06-19T02:51:31.532Z,1016.29
2017-06-19T02:51:57.663Z,1016.28
2017-06-19T02:52:23.744Z,1016.28
2017-06-19T02:52:49.855Z,1016.29
2017-06-19T02:53:15.956Z,1016.3
2017-06-19T02:53:42.045Z,1016.26
2017-06-19T02:54:08.183Z,1016.23
2017-06-19T02:54:34.339Z,1016.25
2017-06-19T02:55:00.457Z,1016.26
2017-06-19T02:55:26.562Z,1016.24
2017-06-19T02:55:52.654Z,1016.21
2017-06-19T02:56:18.765Z,1016.23
2017-06-19T02:56:44.887Z,1016.24
2017-06-19T02:57:10.979Z,1016.21
2017-06-19T02:57:37.086Z,1016.22
2017-06-19T02:58:03.220Z,1016.23
2017-06-19T02:58:29.291Z,1016.22
2017-06-19T02:58:55.409Z,1016.24
2017-06-19T02:59:21.518Z,1016.23
2017-06-19T02:59:47.606Z,1016.2
2017-06-19T03:00:13.708Z,1016.21
2017-06-19T03:00:39.843Z,1016.22
2017-06-19T03:01:05.935Z,1016.21
2017-06-19T03:01:32.040Z,1016.2
2017-06-19T03:01:58.130Z,1016.21
2017-06-19T03:02:24.235Z,1016.19
2017-06-19T03:02:50.370Z,1016.19
2017-06-19T03:03:16.484Z,1016.2
2017-06-19T03:03:42.586Z,1016.18
2017-06-19T03:04:08.723Z,1016.19
2017-06-19T03:04:34.816Z,1016.17
2017-06-19T03:05:00.914Z,1016.17
2017-06-19T03:05:27.022Z,1016.14
2017-06-19T03:05:53.140Z,1016.17
2017-06-19T03:06:19.232Z,1016.15
2017-06-19T03:06:45.367Z,1016.14
2017-06-19T03:07:11.492Z,1016.17
2017-06-19T03:07:37.599Z,1016.15
2017-06-19T03:08:03.692Z,1016.14
2017-06-19T03:08:29.790Z,1016.16
2017-06-19T03:08:55.897Z,1016.14
2017-06-19T03:09:21.992Z,1016.15
2017-06-19T03:09:48.099Z,1016.13
2017-06-19T03:10:14.238Z,1016.14
2017-06-19T03:10:40.335Z,1016.13
2017-06-19T03:11:06.451Z,1016.16
2017-06-19T03:11:32.557Z,1016.12
2017-06-19T03:11:58.659Z,1016.14
2017-06-19T03:12:24.750Z,1016.11
2017-06-19T03:12:50.856Z,1016.09
2017-06-19T03:13:16.963Z,1016.1
2017-06-19T03:13:43.051Z,1016.09
2017-06-19T03:14:09.204Z,1016.1
2017-06-19T03:14:35.308Z,1016.11
2017-06-19T03:15:01.401Z,1016.1
2017-06-19T03:15:27.498Z,1016.08
2017-06-19T03:15:53.605Z,1016.12
2017-06-19T03:16:19.723Z,1016.09
2017-06-19T03:16:45.841Z,1016.06
2017-06-19T03:17:11.951Z,1016.07
2017-06-19T03:17:38.051Z,1016.07
2017-06-19T03:18:04.154Z,1016.08
2017-06-19T03:18:30.248Z,1016.07
2017-06-19T03:18:56.345Z,1016.06
2017-06-19T03:19:22.451Z,1016.07
2017-06-19T03:19:48.570Z,1016.08
2017-06-19T03:20:14.663Z,1016.08
2017-06-19T03:20:40.775Z,1016.09
2017-06-19T03:21:06.872Z,1016.08
2017-06-19T03:21:32.987Z,1016.06
2017-06-19T03:21:59.094Z,1016.09
2017-06-19T03:22:25.195Z,1016.07
2017-06-19T03:22:51.290Z,1016.09
2017-06-19T03:23:17.417Z,1016.05
2017-06-19T03:23:43.534Z,1016.07
2017-06-19T03:24:09.645Z,1016.09
2017-06-19T03:24:35.744Z,1016.05
2017-06-19T03:25:01.834Z,1016.05
2017-06-19T03:25:27.941Z,1016.04
2017-06-19T03:25:54.043Z,1016.06
2017-06-19T03:26:20.134Z,1016.04
2017-06-19T03:26:46.239Z,1016.05
2017-06-19T03:27:12.400Z,1016.07
2017-06-19T03:27:38.490Z,1016.03
2017-06-19T03:28:04.593Z,1016.04
2017-06-19T03:28:30.702Z,1016.05
2017-06-19T03:28:56.820Z,1016.06
2017-06-19T03:29:22.953Z,1016.06
2017-06-19T03:29:49.046Z,1016.03
2017-06-19T03:30:15.152Z,1016.05
2017-06-19T03:30:41.265Z,1016.03
2017-06-19T03:31:07.355Z,1016.04
2017-06-19T03:31:33.458Z,1016.07
2017-06-19T03:31:59.565Z,1016.04
2017-06-19T03:32:25.679Z,1016.04
2017-06-19T03:32:51.776Z,1016.06
2017-06-19T03:33:17.912Z,1016.05
2017-06-19T03:33:44.033Z,1016.09
2017-06-19T03:34:10.149Z,1016.06
2017-06-19T03:34:36.253Z,1016.07
2017-06-19T03:35:02.379Z,1016.07
2017-06-19T03:35:28.487Z,1016.02
2017-06-19T03:35:54.577Z,1016.06
2017-06-19T03:36:20.677Z,1016.06
2017-06-19T03:36:46.785Z,1016.06
2017-06-19T03:37:12.880Z,1016.08
2017-06-19T03:37:38.996Z,1016.06
2017-06-19T03:38:05.106Z,1016.04
2017-06-19T03:38:31.205Z,1016.07
2017-06-19T03:38:57.298Z,1016.04
2017-06-19T03:39:23.403Z,1016.06
2017-06-19T03:39:49.504Z,1016.07
2017-06-19T03:40:15.605Z,1016.07
2017-06-19T03:40:41.724Z,1016.04
2017-06-19T03:41:07.841Z,1016.07
2017-06-19T03:41:33.953Z,1016.07
2017-06-19T03:42:00.076Z,1016.05
2017-06-19T03:42:26.167Z,1016.08
2017-06-19T03:42:52.300Z,1016.07
2017-06-19T03:43:18.399Z,1016.07
2017-06-19T03:43:44.490Z,1016.06
2017-06-19T03:44:10.595Z,1016.06
2017-06-19T03:44:36.705Z,1016.07
2017-06-19T03:45:02.792Z,1016.06
2017-06-19T03:45:28.891Z,1016.08
2017-06-19T03:45:54.987Z,1016.07
2017-06-19T03:46:21.121Z,1016.07
2017-06-19T03:46:47.222Z,1016.06
2017-06-19T03:47:13.316Z,1016.06
2017-06-19T03:47:39.420Z,1016.05
2017-06-19T03:48:05.528Z,1016.11
2017-06-19T03:48:31.617Z,1016.08
2017-06-19T03:48:57.766Z,1016.04
2017-06-19T03:49:23.877Z,1016.05
2017-06-19T03:49:50.018Z,1016.08
2017-06-19T03:50:16.115Z,1016.07
2017-06-19T03:50:42.251Z,1016.05
2017-06-19T03:51:08.376Z,1016.05
2017-06-19T03:51:34.511Z,1016.1
2017-06-19T03:52:00.628Z,1016.08
2017-06-19T03:52:26.728Z,1016.08
2017-06-19T03:52:52.836Z,1016.06
2017-06-19T03:53:18.928Z,1016.06
2017-06-19T03:53:45.028Z,1016.08
2017-06-19T03:54:11.137Z,1016.07
2017-06-19T03:54:37.232Z,1016.07
2017-06-19T03:55:03.349Z,1016.08
2017-06-19T03:55:29.486Z,1016.07
2017-06-19T03:55:55.586Z,1016.11
2017-06-19T03:56:21.676Z,1016.07
2017-06-19T03:56:47.783Z,1016.1
2017-06-19T03:57:13.889Z,1016.11
2017-06-19T03:57:40.000Z,1016.08
2017-06-19T03:58:06.107Z,1016.13
2017-06-19T03:58:32.315Z,1016.12
2017-06-19T03:58:58.405Z,1016.17
2017-06-19T03:59:24.506Z,1016.17
2017-06-19T03:59:50.640Z,1016.16
2017-06-19T04:00:16.733Z,1016.2
2017-06-19T04:00:42.832Z,1016.15
2017-06-19T04:01:08.940Z,1016.16
2017-06-19T04:01:35.035Z,1016.18
2017-06-19T04:02:01.127Z,1016.19
2017-06-19T04:02:27.230Z,1016.21
2017-06-19T04:02:53.332Z,1016.21
2017-06-19T04:03:19.442Z,1016.15
2017-06-19T04:03:45.559Z,1016.17
2017-06-19T04:04:11.657Z,1016.16
2017-06-19T04:04:37.765Z,1016.2
2017-06-19T04:05:03.858Z,1016.15
2017-06-19T04:05:29.951Z,1016.16
2017-06-19T04:05:56.063Z,1016.15
2017-06-19T04:06:22.189Z,1016.17
2017-06-19T04:06:48.279Z,1016.15
2017-06-19T04:07:14.416Z,1016.15
2017-06-19T04:07:40.544Z,1016.14
2017-06-19T04:08:06.645Z,1016.18
2017-06-19T04:08:32.766Z,1016.17
2017-06-19T04:08:58.880Z,1016.18
2017-06-19T04:09:24.996Z,1016.15
2017-06-19T04:09:51.093Z,1016.2
2017-06-19T04:10:17.186Z,1016.18
2017-06-19T04:10:43.293Z,1016.19
2017-06-19T04:11:09.395Z,1016.16
2017-06-19T04:11:35.487Z,1016.18
2017-06-19T04:12:01.592Z,1016.22
2017-06-19T04:12:27.700Z,1016.2
2017-06-19T04:12:53.788Z,1016.22
2017-06-19T04:13:19.889Z,1016.19
2017-06-19T04:13:45.983Z,1016.19
2017-06-19T04:14:12.119Z,1016.19
2017-06-19T04:14:38.219Z,1016.18
2017-06-19T04:15:04.310Z,1016.18
2017-06-19T04:15:30.442Z,1016.24
2017-06-19T04:15:56.550Z,1016.21
2017-06-19T04:16:22.687Z,1016.2
2017-06-19T04:16:48.816Z,1016.2
2017-06-19T04:17:14.922Z,1016.19
2017-06-19T04:17:41.039Z,1016.2
2017-06-19T04:18:07.138Z,1016.15
2017-06-19T04:18:33.244Z,1016.18
2017-06-19T04:18:59.341Z,1016.15
2017-06-19T04:19:25.447Z,1016.11
2017-06-19T04:19:51.537Z,1016.14
2017-06-19T04:20:17.638Z,1016.15
2017-06-19T04:20:43.747Z,1016.16
2017-06-19T04:21:09.863Z,1016.15
2017-06-19T04:21:35.988Z,1016.16
2017-06-19T04:22:02.093Z,1016.14
2017-06-19T04:22:28.188Z,1016.16
2017-06-19T04:22:54.303Z,1016.14
2017-06-19T04:23:20.468Z,1016.15
2017-06-19T04:23:46.596Z,1016.15
2017-06-19T04:24:12.689Z,1016.17
2017-06-19T04:24:38.822Z,1016.17
2017-06-19T04:25:04.917Z,1016.17
2017-06-19T04:25:31.026Z,1016.18
2017-06-19T04:25:57.122Z,1016.18
2017-06-19T04:26:23.212Z,1016.18
2017-06-19T04:26:49.324Z,1016.18
2017-06-19T04:27:15.452Z,1016.2
2017-06-19T04:27:41.539Z,1016.2
2017-06-19T04:28:07.646Z,1016.19
2017-06-19T04:28:33.746Z,1016.19
2017-06-19T04:28:59.865Z,1016.19
2017-06-19T04:29:25.994Z,1016.17
2017-06-19T04:29:52.102Z,1016.21
2017-06-19T04:30:18.196Z,1016.16
2017-06-19T04:30:44.293Z,1016.2
2017-06-19T04:31:10.410Z,1016.21
2017-06-19T04:31:36.517Z,1016.19
2017-06-19T04:32:02.649Z,1016.18
2017-06-19T04:32:28.789Z,1016.17
2017-06-19T04:32:54.919Z,1016.13
2017-06-19T04:33:21.028Z,1016.16
2017-06-19T04:33:47.115Z,1016.1
2017-06-19T04:34:13.217Z,1016.18
2017-06-19T04:34:39.323Z,1016.13
2017-06-19T04:35:05.414Z,1016.15
2017-06-19T04:35:31.515Z,1016.12
2017-06-19T04:35:57.641Z,1016.14
2017-06-19T04:36:23.747Z,1016.15
2017-06-19T04:36:49.854Z,1016.19
2017-06-19T04:37:15.941Z,1016.17
2017-06-19T04:37:42.040Z,1016.14
2017-06-19T04:38:08.148Z,1016.16
2017-06-19T04:38:34.263Z,1016.19
2017-06-19T04:39:00.361Z,1016.19
2017-06-19T04:39:26.495Z,1016.24
2017-06-19T04:39:52.590Z,1016.28
2017-06-19T04:40:18.680Z,1016.34
2017-06-19T04:40:44.845Z,1016.34
2017-06-19T04:41:10.944Z,1016.36
2017-06-19T04:41:37.034Z,1016.39
2017-06-19T04:42:03.142Z,1016.35
2017-06-19T04:42:29.274Z,1016.34
2017-06-19T04:42:55.390Z,1016.26
2017-06-19T04:43:21.492Z,1016.31
2017-06-19T04:43:47.600Z,1016.26
2017-06-19T04:44:13.716Z,1016.28
2017-06-19T04:44:39.817Z,1016.24
2017-06-19T04:45:05.926Z,1016.24
2017-06-19T04:45:32.017Z,1016.22
2017-06-19T04:45:58.138Z,1016.22
2017-06-19T04:46:24.247Z,1016.19
2017-06-19T04:46:50.342Z,1016.2
2017-06-19T04:47:16.450Z,1016.25
2017-06-19T04:47:42.542Z,1016.25
2017-06-19T04:48:08.644Z,1016.27
2017-06-19T04:48:34.752Z,1016.27
2017-06-19T04:49:00.843Z,1016.21
2017-06-19T04:49:26.941Z,1016.25
2017-06-19T04:49:53.053Z,1016.22
2017-06-19T04:50:19.150Z,1016.25
2017-06-19T04:50:45.270Z,1016.25
2017-06-19T04:51:11.384Z,1016.28
2017-06-19T04:51:37.510Z,1016.2
2017-06-19T04:52:03.603Z,1016.23
2017-06-19T04:52:29.711Z,1016.24
2017-06-19T04:52:55.809Z,1016.24
2017-06-19T04:53:21.945Z,1016.21
2017-06-19T04:53:48.074Z,1016.2
2017-06-19T04:54:14.134Z,1016.24
2017-06-19T04:54:40.246Z,1016.22
2017-06-19T04:55:06.374Z,1016.22
2017-06-19T04:55:32.493Z,1016.19
2017-06-19T04:55:58.603Z,1016.23
2017-06-19T04:56:24.733Z,1016.21
2017-06-19T04:56:50.854Z,1016.25
2017-06-19T04:57:16.989Z,1016.18
2017-06-19T04:57:43.098Z,1016.17
2017-06-19T04:58:09.195Z,1016.19
2017-06-19T04:58:35.318Z,1016.22
2017-06-19T04:59:01.414Z,1016.2
2017-06-19T04:59:27.527Z,1016.19
2017-06-19T04:59:53.629Z,1016.18
2017-06-19T05:00:19.721Z,1016.2
2017-06-19T05:00:45.825Z,1016.23
2017-06-19T05:01:11.937Z,1016.21
2017-06-19T05:01:38.028Z,1016.25
2017-06-19T05:02:04.158Z,1016.23
2017-06-19T05:02:30.297Z,1016.24
2017-06-19T05:02:56.390Z,1016.26
2017-06-19T05:03:22.491Z,1016.24
2017-06-19T05:03:48.590Z,1016.24
2017-06-19T05:04:14.699Z,1016.27
2017-06-19T05:04:40.835Z,1016.3
2017-06-19T05:05:06.921Z,1016.21
2017-06-19T05:05:33.051Z,1016.27
2017-06-19T05:05:59.161Z,1016.29
2017-06-19T05:06:25.255Z,1016.27
2017-06-19T05:06:51.356Z,1016.27
2017-06-19T05:07:17.493Z,1016.29
2017-06-19T05:07:43.589Z,1016.27
2017-06-19T05:08:09.684Z,1016.28
2017-06-19T05:08:35.824Z,1016.28
2017-06-19T05:09:01.925Z,1016.3
2017-06-19T05:09:28.031Z,1016.29
2017-06-19T05:09:54.125Z,1016.31
2017-06-19T05:10:20.225Z,1016.31
2017-06-19T05:10:46.338Z,1016.28
2017-06-19T05:11:12.436Z,1016.29
2017-06-19T05:11:38.559Z,1016.31
2017-06-19T05:12:04.730Z,1016.26
2017-06-19T05:12:30.852Z,1016.24
2017-06-19T05:12:56.945Z,1016.24
2017-06-19T05:13:23.059Z,1016.22
2017-06-19T05:13:49.163Z,1016.23
2017-06-19T05:14:15.271Z,1016.22
2017-06-19T05:14:41.379Z,1016.2
2017-06-19T05:15:07.497Z,1016.19
2017-06-19T05:15:33.611Z,1016.19
2017-06-19T05:15:59.712Z,1016.13
2017-06-19T05:16:25.804Z,1016.18
2017-06-19T05:16:51.942Z,1016.17
2017-06-19T05:17:18.045Z,1016.14